sensor_id;sensor_type;location;lat;lon;timestamp;P1;durP1;ratioP1;P2;durP2;ratioP2
30872;SDS011;17579;42.690;2.586;2023-08-17T00:00:12;7.40;;;5.40;;
30872;SDS011;17579;42.690;2.586;2023-08-17T00:02:39;5.35;;;4.63;;
30872;SDS011;17579;42.690;2.586;2023-08-17T00:05:09;5.57;;;5.03;;
30872;SDS011;17579;42.690;2.586;2023-08-17T00:07:46;4.60;;;4.25;;
30872;SDS011;17579;42.690;2.586;2023-08-17T00:10:14;5.95;;;5.30;;
30872;SDS011;17579;42.690;2.586;2023-08-17T00:12:40;5.15;;;4.75;;
30872;SDS011;17579;42.690;2.586;2023-08-17T00:15:06;5.13;;;4.70;;
30872;SDS011;17579;42.690;2.586;2023-08-17T00:17:38;5.95;;;4.90;;
30872;SDS011;17579;42.690;2.586;2023-08-17T00:20:03;5.07;;;4.63;;
30872;SDS011;17579;42.690;2.586;2023-08-17T00:22:35;4.80;;;4.40;;
30872;SDS011;17579;42.690;2.586;2023-08-17T00:25:09;5.03;;;4.63;;
30872;SDS011;17579;42.690;2.586;2023-08-17T00:27:35;4.80;;;4.40;;
30872;SDS011;17579;42.690;2.586;2023-08-17T00:30:04;5.47;;;4.97;;
30872;SDS011;17579;42.690;2.586;2023-08-17T00:32:37;5.97;;;4.80;;
30872;SDS011;17579;42.690;2.586;2023-08-17T00:35:03;5.93;;;5.25;;
30872;SDS011;17579;42.690;2.586;2023-08-17T00:37:30;5.10;;;4.70;;
30872;SDS011;17579;42.690;2.586;2023-08-17T00:40:07;5.82;;;4.85;;
30872;SDS011;17579;42.690;2.586;2023-08-17T00:45:23;5.55;;;5.05;;
30872;SDS011;17579;42.690;2.586;2023-08-17T00:47:49;5.85;;;5.20;;
30872;SDS011;17579;42.690;2.586;2023-08-17T00:50:36;6.22;;;4.82;;
30872;SDS011;17579;42.690;2.586;2023-08-17T00:53:02;6.43;;;5.38;;
30872;SDS011;17579;42.690;2.586;2023-08-17T00:55:38;5.47;;;5.00;;
30872;SDS011;17579;42.690;2.586;2023-08-17T00:58:06;6.80;;;5.55;;
30872;SDS011;17579;42.690;2.586;2023-08-17T01:00:34;5.75;;;5.25;;
30872;SDS011;17579;42.690;2.586;2023-08-17T01:03:03;6.57;;;4.80;;
30872;SDS011;17579;42.690;2.586;2023-08-17T01:05:34;5.47;;;4.97;;
30872;SDS011;17579;42.690;2.586;2023-08-17T01:08:03;5.72;;;5.22;;
30872;SDS011;17579;42.690;2.586;2023-08-17T01:16:04;5.82;;;5.20;;
30872;SDS011;17579;42.690;2.586;2023-08-17T01:18:33;5.00;;;4.60;;
30872;SDS011;17579;42.690;2.586;2023-08-17T01:21:06;5.68;;;5.28;;
30872;SDS011;17579;42.690;2.586;2023-08-17T01:23:57;6.70;;;5.15;;
30872;SDS011;17579;42.690;2.586;2023-08-17T01:26:28;6.32;;;5.70;;
30872;SDS011;17579;42.690;2.586;2023-08-17T01:28:54;6.25;;;5.65;;
30872;SDS011;17579;42.690;2.586;2023-08-17T01:31:22;5.07;;;4.65;;
30872;SDS011;17579;42.690;2.586;2023-08-17T01:34:29;5.47;;;5.00;;
30872;SDS011;17579;42.690;2.586;2023-08-17T01:37:11;5.60;;;5.10;;
30872;SDS011;17579;42.690;2.586;2023-08-17T01:39:47;7.40;;;5.85;;
30872;SDS011;17579;42.690;2.586;2023-08-17T01:42:26;6.10;;;5.53;;
30872;SDS011;17579;42.690;2.586;2023-08-17T01:45:06;5.78;;;5.28;;
30872;SDS011;17579;42.690;2.586;2023-08-17T01:47:33;5.82;;;5.32;;
30872;SDS011;17579;42.690;2.586;2023-08-17T01:50:03;6.00;;;5.40;;
30872;SDS011;17579;42.690;2.586;2023-08-17T01:52:34;7.32;;;5.40;;
30872;SDS011;17579;42.690;2.586;2023-08-17T01:55:11;6.10;;;5.57;;
30872;SDS011;17579;42.690;2.586;2023-08-17T01:57:36;6.13;;;5.50;;
30872;SDS011;17579;42.690;2.586;2023-08-17T02:00:05;5.97;;;5.40;;
30872;SDS011;17579;42.690;2.586;2023-08-17T02:02:38;5.57;;;5.18;;
30872;SDS011;17579;42.690;2.586;2023-08-17T02:05:09;5.60;;;4.75;;
30872;SDS011;17579;42.690;2.586;2023-08-17T02:07:35;6.50;;;5.32;;
30872;SDS011;17579;42.690;2.586;2023-08-17T02:10:26;6.55;;;5.22;;
30872;SDS011;17579;42.690;2.586;2023-08-17T02:12:56;8.10;;;5.60;;
30872;SDS011;17579;42.690;2.586;2023-08-17T02:15:31;6.32;;;5.72;;
30872;SDS011;17579;42.690;2.586;2023-08-17T02:18:00;6.68;;;5.53;;
30872;SDS011;17579;42.690;2.586;2023-08-17T02:20:28;8.77;;;5.50;;
30872;SDS011;17579;42.690;2.586;2023-08-17T02:22:54;5.75;;;5.25;;
30872;SDS011;17579;42.690;2.586;2023-08-17T02:25:22;6.18;;;5.40;;
30872;SDS011;17579;42.690;2.586;2023-08-17T02:27:48;5.00;;;4.60;;
30872;SDS011;17579;42.690;2.586;2023-08-17T02:30:20;6.10;;;5.28;;
30872;SDS011;17579;42.690;2.586;2023-08-17T02:32:48;6.38;;;5.57;;
30872;SDS011;17579;42.690;2.586;2023-08-17T02:35:13;5.60;;;5.03;;
30872;SDS011;17579;42.690;2.586;2023-08-17T02:37:42;6.05;;;5.15;;
30872;SDS011;17579;42.690;2.586;2023-08-17T02:40:10;5.90;;;5.40;;
30872;SDS011;17579;42.690;2.586;2023-08-17T02:42:53;5.93;;;5.32;;
30872;SDS011;17579;42.690;2.586;2023-08-17T02:45:20;8.68;;;7.75;;
30872;SDS011;17579;42.690;2.586;2023-08-17T02:47:51;10.02;;;6.80;;
30872;SDS011;17579;42.690;2.586;2023-08-17T02:50:17;8.68;;;7.43;;
30872;SDS011;17579;42.690;2.586;2023-08-17T02:52:51;9.35;;;7.60;;
30872;SDS011;17579;42.690;2.586;2023-08-17T02:55:27;12.02;;;8.32;;
30872;SDS011;17579;42.690;2.586;2023-08-17T02:57:53;12.30;;;8.70;;
30872;SDS011;17579;42.690;2.586;2023-08-17T03:00:19;10.88;;;8.77;;
30872;SDS011;17579;42.690;2.586;2023-08-17T03:02:45;14.23;;;8.35;;
30872;SDS011;17579;42.690;2.586;2023-08-17T03:05:11;12.13;;;8.88;;
30872;SDS011;17579;42.690;2.586;2023-08-17T03:07:36;10.23;;;7.95;;
30872;SDS011;17579;42.690;2.586;2023-08-17T03:10:04;10.13;;;8.55;;
30872;SDS011;17579;42.690;2.586;2023-08-17T03:12:31;9.18;;;8.27;;
30872;SDS011;17579;42.690;2.586;2023-08-17T03:14:56;13.95;;;8.02;;
30872;SDS011;17579;42.690;2.586;2023-08-17T03:17:25;9.57;;;7.50;;
30872;SDS011;17579;42.690;2.586;2023-08-17T03:19:54;9.77;;;7.90;;
30872;SDS011;17579;42.690;2.586;2023-08-17T03:22:22;8.85;;;8.05;;
30872;SDS011;17579;42.690;2.586;2023-08-17T03:24:48;11.65;;;8.10;;
30872;SDS011;17579;42.690;2.586;2023-08-17T03:27:19;9.20;;;7.28;;
30872;SDS011;17579;42.690;2.586;2023-08-17T03:29:53;8.40;;;7.60;;
30872;SDS011;17579;42.690;2.586;2023-08-17T03:32:41;9.50;;;8.48;;
30872;SDS011;17579;42.690;2.586;2023-08-17T03:35:27;9.55;;;8.65;;
30872;SDS011;17579;42.690;2.586;2023-08-17T03:37:53;9.85;;;8.27;;
30872;SDS011;17579;42.690;2.586;2023-08-17T03:40:19;9.85;;;8.70;;
30872;SDS011;17579;42.690;2.586;2023-08-17T03:42:44;11.63;;;9.80;;
30872;SDS011;17579;42.690;2.586;2023-08-17T03:45:10;14.63;;;10.38;;
30872;SDS011;17579;42.690;2.586;2023-08-17T03:47:36;12.20;;;8.90;;
30872;SDS011;17579;42.690;2.586;2023-08-17T03:50:22;12.82;;;9.80;;
30872;SDS011;17579;42.690;2.586;2023-08-17T03:53:00;12.27;;;9.00;;
30872;SDS011;17579;42.690;2.586;2023-08-17T03:55:30;11.80;;;10.45;;
30872;SDS011;17579;42.690;2.586;2023-08-17T03:57:56;11.95;;;9.85;;
30872;SDS011;17579;42.690;2.586;2023-08-17T04:00:24;17.95;;;10.95;;
30872;SDS011;17579;42.690;2.586;2023-08-17T04:02:49;28.60;;;10.90;;
30872;SDS011;17579;42.690;2.586;2023-08-17T04:05:15;19.02;;;12.23;;
30872;SDS011;17579;42.690;2.586;2023-08-17T04:07:47;29.00;;;13.00;;
30872;SDS011;17579;42.690;2.586;2023-08-17T04:10:13;15.95;;;12.23;;
30872;SDS011;17579;42.690;2.586;2023-08-17T04:12:38;15.43;;;12.07;;
30872;SDS011;17579;42.690;2.586;2023-08-17T04:15:06;15.43;;;12.68;;
30872;SDS011;17579;42.690;2.586;2023-08-17T04:17:35;15.48;;;11.57;;
30872;SDS011;17579;42.690;2.586;2023-08-17T04:20:04;19.50;;;9.80;;
30872;SDS011;17579;42.690;2.586;2023-08-17T04:22:31;11.43;;;9.68;;
30872;SDS011;17579;42.690;2.586;2023-08-17T04:24:57;58.72;;;12.43;;
30872;SDS011;17579;42.690;2.586;2023-08-17T04:27:25;37.25;;;13.45;;
30872;SDS011;17579;42.690;2.586;2023-08-17T04:29:51;19.13;;;13.98;;
30872;SDS011;17579;42.690;2.586;2023-08-17T04:32:20;14.98;;;13.48;;
30872;SDS011;17579;42.690;2.586;2023-08-17T04:34:46;46.35;;;14.35;;
30872;SDS011;17579;42.690;2.586;2023-08-17T04:37:13;62.22;;;16.52;;
30872;SDS011;17579;42.690;2.586;2023-08-17T04:39:39;47.70;;;15.77;;
30872;SDS011;17579;42.690;2.586;2023-08-17T04:42:06;32.72;;;14.52;;
30872;SDS011;17579;42.690;2.586;2023-08-17T04:44:32;41.05;;;15.57;;
30872;SDS011;17579;42.690;2.586;2023-08-17T04:47:01;34.38;;;15.63;;
30872;SDS011;17579;42.690;2.586;2023-08-17T04:49:27;47.65;;;17.20;;
30872;SDS011;17579;42.690;2.586;2023-08-17T04:51:53;108.93;;;19.88;;
30872;SDS011;17579;42.690;2.586;2023-08-17T04:54:19;242.60;;;25.55;;
30872;SDS011;17579;42.690;2.586;2023-08-17T04:56:47;53.38;;;17.35;;
30872;SDS011;17579;42.690;2.586;2023-08-17T04:59:15;62.60;;;16.92;;
30872;SDS011;17579;42.690;2.586;2023-08-17T05:01:43;66.95;;;15.07;;
30872;SDS011;17579;42.690;2.586;2023-08-17T05:04:09;15.63;;;10.35;;
30872;SDS011;17579;42.690;2.586;2023-08-17T05:06:35;16.08;;;10.70;;
30872;SDS011;17579;42.690;2.586;2023-08-17T05:09:02;11.85;;;8.48;;
30872;SDS011;17579;42.690;2.586;2023-08-17T05:11:28;13.82;;;9.65;;
30872;SDS011;17579;42.690;2.586;2023-08-17T05:13:54;11.73;;;9.55;;
30872;SDS011;17579;42.690;2.586;2023-08-17T05:16:34;14.35;;;9.57;;
30872;SDS011;17579;42.690;2.586;2023-08-17T05:19:00;13.73;;;10.40;;
30872;SDS011;17579;42.690;2.586;2023-08-17T05:21:28;11.50;;;10.32;;
30872;SDS011;17579;42.690;2.586;2023-08-17T05:23:55;10.70;;;9.60;;
30872;SDS011;17579;42.690;2.586;2023-08-17T05:26:23;10.13;;;9.20;;
30872;SDS011;17579;42.690;2.586;2023-08-17T05:28:49;12.20;;;7.80;;
30872;SDS011;17579;42.690;2.586;2023-08-17T05:34:02;9.52;;;8.48;;
30872;SDS011;17579;42.690;2.586;2023-08-17T05:36:33;78.55;;;13.45;;
30872;SDS011;17579;42.690;2.586;2023-08-17T05:39:25;249.45;;;21.33;;
30872;SDS011;17579;42.690;2.586;2023-08-17T05:41:51;60.83;;;12.80;;
30872;SDS011;17579;42.690;2.586;2023-08-17T05:44:37;56.90;;;11.23;;
30872;SDS011;17579;42.690;2.586;2023-08-17T05:47:03;44.15;;;10.65;;
30872;SDS011;17579;42.690;2.586;2023-08-17T05:49:32;55.65;;;12.50;;
30872;SDS011;17579;42.690;2.586;2023-08-17T05:52:23;172.02;;;18.98;;
30872;SDS011;17579;42.690;2.586;2023-08-17T05:54:49;274.30;;;21.98;;
30872;SDS011;17579;42.690;2.586;2023-08-17T05:57:14;225.23;;;20.60;;
30872;SDS011;17579;42.690;2.586;2023-08-17T05:59:43;199.23;;;20.65;;
30872;SDS011;17579;42.690;2.586;2023-08-17T06:02:22;94.50;;;12.82;;
30872;SDS011;17579;42.690;2.586;2023-08-17T06:04:51;241.93;;;21.25;;
30872;SDS011;17579;42.690;2.586;2023-08-17T06:07:17;188.73;;;17.70;;
30872;SDS011;17579;42.690;2.586;2023-08-17T06:09:42;170.40;;;18.05;;
30872;SDS011;17579;42.690;2.586;2023-08-17T06:12:08;220.50;;;20.00;;
30872;SDS011;17579;42.690;2.586;2023-08-17T06:14:37;168.00;;;18.85;;
30872;SDS011;17579;42.690;2.586;2023-08-17T06:17:12;88.55;;;13.65;;
30872;SDS011;17579;42.690;2.586;2023-08-17T06:19:38;287.58;;;25.45;;
30872;SDS011;17579;42.690;2.586;2023-08-17T06:22:12;220.45;;;21.23;;
30872;SDS011;17579;42.690;2.586;2023-08-17T06:24:43;254.27;;;23.30;;
30872;SDS011;17579;42.690;2.586;2023-08-17T06:27:13;260.75;;;24.17;;
30872;SDS011;17579;42.690;2.586;2023-08-17T06:29:42;576.20;;;43.22;;
30872;SDS011;17579;42.690;2.586;2023-08-17T06:32:11;381.75;;;29.90;;
30872;SDS011;17579;42.690;2.586;2023-08-17T06:34:37;411.55;;;34.08;;
30872;SDS011;17579;42.690;2.586;2023-08-17T06:37:03;396.33;;;29.45;;
30872;SDS011;17579;42.690;2.586;2023-08-17T06:39:50;480.10;;;38.22;;
30872;SDS011;17579;42.690;2.586;2023-08-17T06:42:27;485.02;;;33.15;;
30872;SDS011;17579;42.690;2.586;2023-08-17T06:45:03;628.42;;;47.70;;
30872;SDS011;17579;42.690;2.586;2023-08-17T06:47:34;414.02;;;31.42;;
30872;SDS011;17579;42.690;2.586;2023-08-17T06:50:05;426.40;;;32.17;;
30872;SDS011;17579;42.690;2.586;2023-08-17T06:52:33;479.02;;;35.15;;
30872;SDS011;17579;42.690;2.586;2023-08-17T06:55:08;511.90;;;38.70;;
30872;SDS011;17579;42.690;2.586;2023-08-17T06:57:37;325.77;;;32.72;;
30872;SDS011;17579;42.690;2.586;2023-08-17T07:00:03;291.70;;;26.95;;
30872;SDS011;17579;42.690;2.586;2023-08-17T07:02:33;257.88;;;24.73;;
30872;SDS011;17579;42.690;2.586;2023-08-17T07:05:08;204.65;;;24.70;;
30872;SDS011;17579;42.690;2.586;2023-08-17T07:07:35;197.73;;;21.05;;
30872;SDS011;17579;42.690;2.586;2023-08-17T07:10:07;253.23;;;27.73;;
30872;SDS011;17579;42.690;2.586;2023-08-17T07:12:54;259.17;;;26.05;;
30872;SDS011;17579;42.690;2.586;2023-08-17T07:15:22;397.85;;;34.55;;
30872;SDS011;17579;42.690;2.586;2023-08-17T07:20:37;174.70;;;22.30;;
30872;SDS011;17579;42.690;2.586;2023-08-17T07:23:03;150.13;;;19.15;;
30872;SDS011;17579;42.690;2.586;2023-08-17T07:25:29;198.60;;;23.05;;
30872;SDS011;17579;42.690;2.586;2023-08-17T07:27:58;64.78;;;15.48;;
30872;SDS011;17579;42.690;2.586;2023-08-17T07:30:24;206.65;;;23.73;;
30872;SDS011;17579;42.690;2.586;2023-08-17T07:32:53;52.63;;;14.80;;
30872;SDS011;17579;42.690;2.586;2023-08-17T07:35:24;178.52;;;22.65;;
30872;SDS011;17579;42.690;2.586;2023-08-17T07:37:50;239.95;;;27.38;;
30872;SDS011;17579;42.690;2.586;2023-08-17T07:40:21;264.60;;;23.50;;
30872;SDS011;17579;42.690;2.586;2023-08-17T07:42:55;38.67;;;13.07;;
30872;SDS011;17579;42.690;2.586;2023-08-17T07:45:21;153.48;;;20.95;;
30872;SDS011;17579;42.690;2.586;2023-08-17T07:47:49;16.52;;;12.57;;
30872;SDS011;17579;42.690;2.586;2023-08-17T07:50:15;14.70;;;13.32;;
30872;SDS011;17579;42.690;2.586;2023-08-17T07:52:50;18.27;;;13.88;;
30872;SDS011;17579;42.690;2.586;2023-08-17T07:55:18;16.88;;;14.88;;
30872;SDS011;17579;42.690;2.586;2023-08-17T07:58:22;13.77;;;12.38;;
30872;SDS011;17579;42.690;2.586;2023-08-17T08:00:50;13.40;;;12.10;;
30872;SDS011;17579;42.690;2.586;2023-08-17T08:03:21;11.63;;;10.52;;
30872;SDS011;17579;42.690;2.586;2023-08-17T08:05:50;11.95;;;10.80;;
30872;SDS011;17579;42.690;2.586;2023-08-17T08:08:20;12.63;;;11.52;;
30872;SDS011;17579;42.690;2.586;2023-08-17T08:11:08;13.90;;;12.50;;
30872;SDS011;17579;42.690;2.586;2023-08-17T08:13:35;11.43;;;10.43;;
30872;SDS011;17579;42.690;2.586;2023-08-17T08:16:03;11.13;;;10.10;;
30872;SDS011;17579;42.690;2.586;2023-08-17T08:18:29;9.82;;;8.75;;
30872;SDS011;17579;42.690;2.586;2023-08-17T08:21:00;9.40;;;8.55;;
30872;SDS011;17579;42.690;2.586;2023-08-17T08:23:52;8.05;;;7.35;;
30872;SDS011;17579;42.690;2.586;2023-08-17T08:26:20;8.45;;;7.68;;
30872;SDS011;17579;42.690;2.586;2023-08-17T08:28:49;7.85;;;7.10;;
30872;SDS011;17579;42.690;2.586;2023-08-17T08:31:20;8.23;;;7.50;;
30872;SDS011;17579;42.690;2.586;2023-08-17T08:33:49;12.48;;;7.50;;
30872;SDS011;17579;42.690;2.586;2023-08-17T08:36:20;7.63;;;7.03;;
30872;SDS011;17579;42.690;2.586;2023-08-17T08:38:49;8.57;;;7.75;;
30872;SDS011;17579;42.690;2.586;2023-08-17T08:41:23;8.73;;;7.82;;
30872;SDS011;17579;42.690;2.586;2023-08-17T08:44:07;8.30;;;7.55;;
30872;SDS011;17579;42.690;2.586;2023-08-17T08:46:33;8.25;;;6.80;;
30872;SDS011;17579;42.690;2.586;2023-08-17T08:49:00;7.78;;;6.97;;
30872;SDS011;17579;42.690;2.586;2023-08-17T08:51:41;8.10;;;6.68;;
30872;SDS011;17579;42.690;2.586;2023-08-17T08:54:12;6.68;;;6.10;;
30872;SDS011;17579;42.690;2.586;2023-08-17T08:56:42;6.50;;;6.00;;
30872;SDS011;17579;42.690;2.586;2023-08-17T08:59:30;7.72;;;6.85;;
30872;SDS011;17579;42.690;2.586;2023-08-17T09:02:19;7.65;;;6.95;;
30872;SDS011;17579;42.690;2.586;2023-08-17T09:04:50;7.95;;;7.15;;
30872;SDS011;17579;42.690;2.586;2023-08-17T09:07:24;6.97;;;6.28;;
30872;SDS011;17579;42.690;2.586;2023-08-17T09:09:55;8.13;;;7.32;;
30872;SDS011;17579;42.690;2.586;2023-08-17T09:15:11;7.35;;;6.60;;
30872;SDS011;17579;42.690;2.586;2023-08-17T09:17:37;7.53;;;6.82;;
30872;SDS011;17579;42.690;2.586;2023-08-17T09:22:59;6.90;;;6.30;;
30872;SDS011;17579;42.690;2.586;2023-08-17T09:25:43;8.05;;;7.35;;
30872;SDS011;17579;42.690;2.586;2023-08-17T09:28:17;6.95;;;5.45;;
30872;SDS011;17579;42.690;2.586;2023-08-17T09:33:29;8.13;;;6.03;;
30872;SDS011;17579;42.690;2.586;2023-08-17T09:36:15;7.38;;;6.45;;
30872;SDS011;17579;42.690;2.586;2023-08-17T09:38:44;7.03;;;6.38;;
30872;SDS011;17579;42.690;2.586;2023-08-17T09:41:09;7.50;;;6.72;;
30872;SDS011;17579;42.690;2.586;2023-08-17T09:43:59;7.85;;;6.82;;
30872;SDS011;17579;42.690;2.586;2023-08-17T09:46:47;7.53;;;6.78;;
30872;SDS011;17579;42.690;2.586;2023-08-17T09:49:13;7.45;;;6.75;;
30872;SDS011;17579;42.690;2.586;2023-08-17T09:51:42;7.97;;;7.38;;
30872;SDS011;17579;42.690;2.586;2023-08-17T09:56:51;7.30;;;6.70;;
30872;SDS011;17579;42.690;2.586;2023-08-17T09:59:18;8.20;;;7.40;;
30872;SDS011;17579;42.690;2.586;2023-08-17T10:01:47;10.57;;;7.50;;
30872;SDS011;17579;42.690;2.586;2023-08-17T10:04:15;8.35;;;7.10;;
30872;SDS011;17579;42.690;2.586;2023-08-17T10:06:57;7.18;;;6.47;;
30872;SDS011;17579;42.690;2.586;2023-08-17T10:09:36;11.45;;;8.00;;
30872;SDS011;17579;42.690;2.586;2023-08-17T10:12:10;8.45;;;7.28;;
30872;SDS011;17579;42.690;2.586;2023-08-17T10:20:36;7.95;;;7.15;;
30872;SDS011;17579;42.690;2.586;2023-08-17T10:23:08;8.35;;;7.25;;
30872;SDS011;17579;42.690;2.586;2023-08-17T10:25:42;9.40;;;8.25;;
30872;SDS011;17579;42.690;2.586;2023-08-17T10:28:09;7.85;;;6.93;;
30872;SDS011;17579;42.690;2.586;2023-08-17T10:30:37;9.18;;;7.70;;
30872;SDS011;17579;42.690;2.586;2023-08-17T10:33:06;8.02;;;6.57;;
30872;SDS011;17579;42.690;2.586;2023-08-17T10:35:43;8.30;;;7.30;;
30872;SDS011;17579;42.690;2.586;2023-08-17T10:38:10;7.72;;;6.93;;
30872;SDS011;17579;42.690;2.586;2023-08-17T10:40:40;10.00;;;6.70;;
30872;SDS011;17579;42.690;2.586;2023-08-17T10:43:10;7.60;;;6.38;;
30872;SDS011;17579;42.690;2.586;2023-08-17T10:45:37;8.70;;;7.07;;
30872;SDS011;17579;42.690;2.586;2023-08-17T10:50:30;10.48;;;7.32;;
30872;SDS011;17579;42.690;2.586;2023-08-17T10:53:00;8.02;;;6.97;;
30872;SDS011;17579;42.690;2.586;2023-08-17T10:55:35;7.05;;;6.45;;
30872;SDS011;17579;42.690;2.586;2023-08-17T10:58:02;7.53;;;6.53;;
30872;SDS011;17579;42.690;2.586;2023-08-17T11:00:44;6.72;;;6.13;;
30872;SDS011;17579;42.690;2.586;2023-08-17T11:03:19;7.50;;;6.18;;
30872;SDS011;17579;42.690;2.586;2023-08-17T11:05:46;7.40;;;6.32;;
30872;SDS011;17579;42.690;2.586;2023-08-17T11:10:47;6.22;;;5.72;;
30872;SDS011;17579;42.690;2.586;2023-08-17T11:13:14;6.88;;;6.13;;
30872;SDS011;17579;42.690;2.586;2023-08-17T11:15:41;6.32;;;5.80;;
30872;SDS011;17579;42.690;2.586;2023-08-17T11:18:09;7.22;;;6.30;;
30872;SDS011;17579;42.690;2.586;2023-08-17T11:20:39;7.00;;;6.07;;
30872;SDS011;17579;42.690;2.586;2023-08-17T11:23:08;7.32;;;6.03;;
30872;SDS011;17579;42.690;2.586;2023-08-17T11:25:37;7.22;;;6.53;;
30872;SDS011;17579;42.690;2.586;2023-08-17T11:28:11;6.70;;;6.03;;
30872;SDS011;17579;42.690;2.586;2023-08-17T11:31:02;7.50;;;6.35;;
30872;SDS011;17579;42.690;2.586;2023-08-17T11:33:32;7.60;;;6.70;;
30872;SDS011;17579;42.690;2.586;2023-08-17T11:36:03;6.50;;;5.90;;
30872;SDS011;17579;42.690;2.586;2023-08-17T11:38:32;7.28;;;6.60;;
30872;SDS011;17579;42.690;2.586;2023-08-17T11:41:03;7.65;;;6.85;;
30872;SDS011;17579;42.690;2.586;2023-08-17T11:43:29;7.72;;;6.53;;
30872;SDS011;17579;42.690;2.586;2023-08-17T11:45:57;7.65;;;7.03;;
30872;SDS011;17579;42.690;2.586;2023-08-17T11:48:43;6.75;;;6.13;;
30872;SDS011;17579;42.690;2.586;2023-08-17T11:51:09;6.95;;;6.35;;
30872;SDS011;17579;42.690;2.586;2023-08-17T11:53:37;6.75;;;6.15;;
30872;SDS011;17579;42.690;2.586;2023-08-17T11:56:04;5.82;;;5.30;;
30872;SDS011;17579;42.690;2.586;2023-08-17T12:01:08;6.40;;;5.75;;
30872;SDS011;17579;42.690;2.586;2023-08-17T12:03:55;7.00;;;6.32;;
30872;SDS011;17579;42.690;2.586;2023-08-17T12:06:21;5.68;;;5.28;;
30872;SDS011;17579;42.690;2.586;2023-08-17T12:08:47;6.68;;;6.07;;
30872;SDS011;17579;42.690;2.586;2023-08-17T12:11:18;6.15;;;5.65;;
30872;SDS011;17579;42.690;2.586;2023-08-17T12:16:19;6.20;;;5.07;;
30872;SDS011;17579;42.690;2.586;2023-08-17T12:18:47;6.35;;;5.70;;
30872;SDS011;17579;42.690;2.586;2023-08-17T12:21:15;8.35;;;5.57;;
30872;SDS011;17579;42.690;2.586;2023-08-17T12:23:50;6.80;;;6.05;;
30872;SDS011;17579;42.690;2.586;2023-08-17T12:26:24;8.68;;;5.95;;
30872;SDS011;17579;42.690;2.586;2023-08-17T12:29:04;5.40;;;4.90;;
30872;SDS011;17579;42.690;2.586;2023-08-17T12:31:32;5.38;;;4.88;;
30872;SDS011;17579;42.690;2.586;2023-08-17T12:34:10;4.90;;;4.60;;
30872;SDS011;17579;42.690;2.586;2023-08-17T12:36:59;5.65;;;5.15;;
30872;SDS011;17579;42.690;2.586;2023-08-17T12:39:24;5.70;;;5.03;;
30872;SDS011;17579;42.690;2.586;2023-08-17T12:41:56;9.05;;;5.68;;
30872;SDS011;17579;42.690;2.586;2023-08-17T12:44:43;4.93;;;4.40;;
30872;SDS011;17579;42.690;2.586;2023-08-17T12:47:24;5.10;;;4.70;;
30872;SDS011;17579;42.690;2.586;2023-08-17T12:49:50;6.45;;;4.60;;
30872;SDS011;17579;42.690;2.586;2023-08-17T12:52:29;4.88;;;4.47;;
30872;SDS011;17579;42.690;2.586;2023-08-17T12:54:54;5.07;;;4.68;;
30872;SDS011;17579;42.690;2.586;2023-08-17T12:57:23;5.50;;;5.00;;
30872;SDS011;17579;42.690;2.586;2023-08-17T12:59:52;6.75;;;4.30;;
30872;SDS011;17579;42.690;2.586;2023-08-17T13:02:38;4.70;;;4.30;;
30872;SDS011;17579;42.690;2.586;2023-08-17T13:05:03;4.97;;;4.30;;
30872;SDS011;17579;42.690;2.586;2023-08-17T13:07:34;4.47;;;4.07;;
30872;SDS011;17579;42.690;2.586;2023-08-17T13:10:03;5.90;;;4.35;;
30872;SDS011;17579;42.690;2.586;2023-08-17T13:12:29;5.60;;;4.43;;
30872;SDS011;17579;42.690;2.586;2023-08-17T13:14:58;4.05;;;3.75;;
30872;SDS011;17579;42.690;2.586;2023-08-17T13:17:27;5.70;;;4.03;;
30872;SDS011;17579;42.690;2.586;2023-08-17T13:19:55;5.18;;;4.68;;
30872;SDS011;17579;42.690;2.586;2023-08-17T13:22:28;4.22;;;3.83;;
30872;SDS011;17579;42.690;2.586;2023-08-17T13:25:04;4.13;;;3.83;;
30872;SDS011;17579;42.690;2.586;2023-08-17T13:27:34;5.43;;;3.90;;
30872;SDS011;17579;42.690;2.586;2023-08-17T13:30:03;4.50;;;4.10;;
30872;SDS011;17579;42.690;2.586;2023-08-17T13:35:18;4.50;;;4.10;;
30872;SDS011;17579;42.690;2.586;2023-08-17T13:37:44;4.30;;;4.00;;
30872;SDS011;17579;42.690;2.586;2023-08-17T13:43:14;4.88;;;4.40;;
30872;SDS011;17579;42.690;2.586;2023-08-17T13:45:40;4.25;;;3.90;;
30872;SDS011;17579;42.690;2.586;2023-08-17T13:48:06;4.72;;;4.22;;
30872;SDS011;17579;42.690;2.586;2023-08-17T13:50:37;4.88;;;4.40;;
30872;SDS011;17579;42.690;2.586;2023-08-17T13:53:14;4.65;;;4.25;;
30872;SDS011;17579;42.690;2.586;2023-08-17T13:55:44;4.10;;;3.80;;
30872;SDS011;17579;42.690;2.586;2023-08-17T13:58:12;4.18;;;3.83;;
30872;SDS011;17579;42.690;2.586;2023-08-17T14:00:45;5.13;;;4.30;;
30872;SDS011;17579;42.690;2.586;2023-08-17T14:03:28;7.80;;;4.63;;
30872;SDS011;17579;42.690;2.586;2023-08-17T14:05:54;4.50;;;4.10;;
30872;SDS011;17579;42.690;2.586;2023-08-17T14:08:20;4.95;;;3.83;;
30872;SDS011;17579;42.690;2.586;2023-08-17T14:10:55;4.47;;;4.07;;
30872;SDS011;17579;42.690;2.586;2023-08-17T14:13:21;5.13;;;4.72;;
30872;SDS011;17579;42.690;2.586;2023-08-17T14:15:51;4.45;;;4.05;;
30872;SDS011;17579;42.690;2.586;2023-08-17T14:18:21;4.78;;;4.38;;
30872;SDS011;17579;42.690;2.586;2023-08-17T14:23:37;4.95;;;4.55;;
30872;SDS011;17579;42.690;2.586;2023-08-17T14:26:14;5.68;;;4.25;;
30872;SDS011;17579;42.690;2.586;2023-08-17T14:29:00;5.45;;;4.43;;
30872;SDS011;17579;42.690;2.586;2023-08-17T14:31:29;4.65;;;4.30;;
30872;SDS011;17579;42.690;2.586;2023-08-17T14:34:11;5.70;;;4.05;;
30872;SDS011;17579;42.690;2.586;2023-08-17T14:36:38;4.65;;;4.25;;
30872;SDS011;17579;42.690;2.586;2023-08-17T14:39:07;5.05;;;4.53;;
30872;SDS011;17579;42.690;2.586;2023-08-17T14:41:33;5.32;;;4.55;;
30872;SDS011;17579;42.690;2.586;2023-08-17T14:44:01;4.43;;;4.03;;
30872;SDS011;17579;42.690;2.586;2023-08-17T14:46:36;3.90;;;3.60;;
30872;SDS011;17579;42.690;2.586;2023-08-17T14:49:04;5.47;;;4.10;;
30872;SDS011;17579;42.690;2.586;2023-08-17T14:51:30;4.93;;;3.88;;
30872;SDS011;17579;42.690;2.586;2023-08-17T14:54:12;3.85;;;3.42;;
30872;SDS011;17579;42.690;2.586;2023-08-17T14:56:38;5.03;;;4.30;;
30872;SDS011;17579;42.690;2.586;2023-08-17T14:59:07;3.83;;;3.33;;
30872;SDS011;17579;42.690;2.586;2023-08-17T15:01:33;5.88;;;3.75;;
30872;SDS011;17579;42.690;2.586;2023-08-17T15:04:07;4.05;;;3.70;;
30872;SDS011;17579;42.690;2.586;2023-08-17T15:06:35;3.65;;;3.40;;
30872;SDS011;17579;42.690;2.586;2023-08-17T15:09:03;3.83;;;3.42;;
30872;SDS011;17579;42.690;2.586;2023-08-17T15:11:29;4.38;;;3.00;;
30872;SDS011;17579;42.690;2.586;2023-08-17T15:13:55;3.42;;;2.95;;
30872;SDS011;17579;42.690;2.586;2023-08-17T15:16:41;4.55;;;3.13;;
30872;SDS011;17579;42.690;2.586;2023-08-17T15:19:07;4.20;;;3.80;;
30872;SDS011;17579;42.690;2.586;2023-08-17T15:21:33;3.97;;;3.67;;
30872;SDS011;17579;42.690;2.586;2023-08-17T15:24:01;4.40;;;3.13;;
30872;SDS011;17579;42.690;2.586;2023-08-17T15:26:36;7.38;;;2.63;;
30872;SDS011;17579;42.690;2.586;2023-08-17T15:29:01;3.63;;;3.30;;
30872;SDS011;17579;42.690;2.586;2023-08-17T15:31:27;3.95;;;3.55;;
30872;SDS011;17579;42.690;2.586;2023-08-17T15:33:53;3.13;;;2.92;;
30872;SDS011;17579;42.690;2.586;2023-08-17T15:36:22;4.18;;;2.90;;
30872;SDS011;17579;42.690;2.586;2023-08-17T15:38:49;3.78;;;2.92;;
30872;SDS011;17579;42.690;2.586;2023-08-17T15:44:04;4.40;;;3.28;;
30872;SDS011;17579;42.690;2.586;2023-08-17T15:46:35;3.90;;;3.10;;
30872;SDS011;17579;42.690;2.586;2023-08-17T15:49:06;2.90;;;2.70;;
30872;SDS011;17579;42.690;2.586;2023-08-17T15:51:32;3.55;;;3.05;;